Big Bear Station Historical Data
Daily Summary for January 8, 2017 Units:  English    Metric   Both
« Previous Day
Next Day »
Daily Weekly Monthly Yearly Custom
  High: Low: Average:
Temperature: 54.0 °F 41.5 °F 46.2 °F
Dew Point: 38.5 °F 26.1 °F 32.8 °F
Humidity: 73 % 45 % 60 %
Wind Speed: 12.5 mph 0.0 mph 3.5 mph
Wind Gust: -999.0 mph - -
Wind:- - SSW
Pressure: 23.70 in 23.57 in -
Precipitation: 0.00 in    
Historical Graphs
 
 
Tabular Data for January 8, 2017
Time Temperature Dew Point Pressure Wind Wind Speed Wind Gust Humidity Rainfall Rate (Hourly)
00:11 41.5 °F 33.5 °F 23.65 in NW 1.1 mph -999.0 mph 73 % 0 in
00:26 41.5 °F 33.1 °F 23.65 in West 1.7 mph -999.0 mph 72 % 0 in
00:41 41.9 °F 32.8 °F 23.65 in NW 2.2 mph -999.0 mph 70 % 0 in
00:57 42.1 °F 33.0 °F 23.66 in WNW 1.7 mph -999.0 mph 70 % 0 in
01:12 42.3 °F 33.2 °F 23.65 in SW 2.2 mph -999.0 mph 70 % 0 in
01:27 42.8 °F 33.0 °F 23.66 in WNW 2.7 mph -999.0 mph 68 % 0 in
01:43 42.8 °F 32.6 °F 23.66 in NNE 3.2 mph -999.0 mph 67 % 0 in
01:58 42.8 °F 33.0 °F 23.65 in WSW 1.1 mph -999.0 mph 68 % 0 in
02:13 42.6 °F 32.8 °F 23.65 in NW 2.7 mph -999.0 mph 68 % 0 in
02:28 42.6 °F 32.8 °F 23.65 in WNW 2.2 mph -999.0 mph 68 % 0 in
02:43 42.4 °F 33.0 °F 23.65 in NW 1.7 mph -999.0 mph 69 % 0 in
02:59 42.1 °F 33.0 °F 23.65 in Calm   -999.0 mph 70 % 0 in
03:14 41.7 °F 32.6 °F 23.65 in Calm   -999.0 mph 70 % 0 in
03:29 41.5 °F 32.8 °F 23.65 in West 1.7 mph -999.0 mph 71 % 0 in
03:44 42.4 °F 33.0 °F 23.65 in WNW 2.7 mph -999.0 mph 69 % 0 in
03:59 42.3 °F 32.9 °F 23.64 in SSW 2.7 mph -999.0 mph 69 % 0 in
04:15 42.6 °F 33.1 °F 23.64 in WNW 1.1 mph -999.0 mph 69 % 0 in
04:31 42.4 °F 33.0 °F 23.64 in Calm   -999.0 mph 69 % 0 in
04:46 42.4 °F 32.6 °F 23.64 in NNE 3.7 mph -999.0 mph 68 % 0 in
05:01 42.3 °F 32.9 °F 23.65 in NNE 2.7 mph -999.0 mph 69 % 0 in
06:32 43.7 °F 33.8 °F 23.66 in ESE 1.7 mph -999.0 mph 68 % 0 in
06:47 44.1 °F 33.8 °F 23.66 in South 2.7 mph -999.0 mph 67 % 0 in
07:03 43.5 °F 34.0 °F 23.65 in SSE 2.2 mph -999.0 mph 69 % 0 in
07:18 44.2 °F 33.9 °F 23.66 in SSW 1.1 mph -999.0 mph 67 % 0 in
07:34 44.8 °F 34.1 °F 23.66 in East 2.7 mph -999.0 mph 66 % 0 in
07:49 45.1 °F 34.0 °F 23.66 in SE 1.1 mph -999.0 mph 65 % 0 in
08:04 45.9 °F 34.4 °F 23.67 in South 2.7 mph -999.0 mph 64 % 0 in
08:20 46.8 °F 34.5 °F 23.67 in ESE 1.7 mph -999.0 mph 62 % 0 in
08:35 47.8 °F 35.0 °F 23.67 in SW 3.2 mph -999.0 mph 61 % 0 in
08:50 48.9 °F 35.2 °F 23.68 in Calm   -999.0 mph 59 % 0 in
09:05 49.8 °F 35.2 °F 23.68 in NW 2.7 mph -999.0 mph 57 % 0 in
09:20 50.4 °F 35.3 °F 23.69 in South 4.7 mph -999.0 mph 56 % 0 in
09:36 51.3 °F 35.7 °F 23.69 in SSW 5.3 mph -999.0 mph 55 % 0 in
09:51 51.6 °F 36.0 °F 23.69 in ENE 4.7 mph -999.0 mph 55 % 0 in
10:06 52.0 °F 35.9 °F 23.70 in NNW 2.2 mph -999.0 mph 54 % 0 in
10:21 52.2 °F 36.1 °F 23.69 in NNE 2.2 mph -999.0 mph 54 % 0 in
10:37 52.3 °F 36.6 °F 23.69 in WSW 2.7 mph -999.0 mph 55 % 0 in
10:52 52.5 °F 37.7 °F 23.68 in South 2.7 mph -999.0 mph 57 % 0 in
11:07 52.9 °F 38.1 °F 23.67 in WSW 4.2 mph -999.0 mph 57 % 0 in
11:22 52.2 °F 37.9 °F 23.67 in West 2.7 mph -999.0 mph 58 % 0 in
11:38 52.9 °F 38.5 °F 23.66 in East 7.3 mph -999.0 mph 58 % 0 in
11:53 52.7 °F 38.3 °F 23.65 in South 6.3 mph -999.0 mph 58 % 0 in
12:09 53.6 °F 37.4 °F 23.64 in SSW 5.8 mph -999.0 mph 54 % 0 in
12:24 53.4 °F 37.6 °F 23.64 in WNW 9.4 mph -999.0 mph 55 % 0 in
12:39 54.0 °F 37.7 °F 23.63 in South 4.7 mph -999.0 mph 54 % 0 in
12:55 52.9 °F 36.7 °F 23.62 in SSW 11.4 mph -999.0 mph 54 % 0 in
13:10 52.3 °F 36.1 °F 23.62 in SW 5.8 mph -999.0 mph 54 % 0 in
13:25 51.4 °F 35.8 °F 23.62 in WNW 4.2 mph -999.0 mph 55 % 0 in
13:41 50.4 °F 35.3 °F 23.61 in NNE 5.3 mph -999.0 mph 56 % 0 in
13:56 49.8 °F 35.2 °F 23.61 in NNE 3.7 mph -999.0 mph 57 % 0 in
14:11 49.8 °F 34.7 °F 23.61 in NNE 3.2 mph -999.0 mph 56 % 0 in
14:26 49.5 °F 31.6 °F 23.61 in South 4.7 mph -999.0 mph 50 % 0 in
14:41 48.9 °F 31.1 °F 23.61 in North 8.3 mph -999.0 mph 50 % 0 in
14:57 48.6 °F 31.8 °F 23.61 in South 3.7 mph -999.0 mph 52 % 0 in
15:12 48.2 °F 32.3 °F 23.61 in South 8.9 mph -999.0 mph 54 % 0 in
15:28 48.0 °F 32.1 °F 23.61 in SE 3.7 mph -999.0 mph 54 % 0 in
15:43 47.5 °F 32.1 °F 23.60 in WSW 2.2 mph -999.0 mph 55 % 0 in
15:58 46.6 °F 32.2 °F 23.60 in ENE 2.2 mph -999.0 mph 57 % 0 in
16:14 45.9 °F 32.0 °F 23.60 in NW 3.2 mph -999.0 mph 58 % 0 in
16:29 45.5 °F 31.6 °F 23.60 in South 1.7 mph -999.0 mph 58 % 0 in
16:44 44.6 °F 32.0 °F 23.59 in West 2.2 mph -999.0 mph 61 % 0 in
16:59 44.2 °F 31.6 °F 23.59 in West 1.7 mph -999.0 mph 61 % 0 in
17:14 43.9 °F 31.3 °F 23.59 in South 2.2 mph -999.0 mph 61 % 0 in
17:30 43.7 °F 30.7 °F 23.58 in SSW 4.7 mph -999.0 mph 60 % 0 in
17:46 43.3 °F 29.1 °F 23.58 in SSW 1.7 mph -999.0 mph 57 % 0 in
18:01 43.2 °F 28.1 °F 23.58 in NW 2.2 mph -999.0 mph 55 % 0 in
18:16 43.5 °F 27.0 °F 23.58 in WSW 4.2 mph -999.0 mph 52 % 0 in
18:31 44.4 °F 26.4 °F 23.58 in ESE 2.2 mph -999.0 mph 49 % 0 in
18:47 45.1 °F 26.6 °F 23.58 in South 3.7 mph -999.0 mph 48 % 0 in
19:03 44.6 °F 27.1 °F 23.58 in SSE 5.8 mph -999.0 mph 50 % 0 in
19:18 44.6 °F 29.0 °F 23.59 in South 2.2 mph -999.0 mph 54 % 0 in
19:33 43.2 °F 31.8 °F 23.59 in West 2.2 mph -999.0 mph 64 % 0 in
19:48 42.3 °F 32.5 °F 23.59 in NNW 3.2 mph -999.0 mph 68 % 0 in
20:03 42.6 °F 33.1 °F 23.59 in SE 3.2 mph -999.0 mph 69 % 0 in
20:19 42.8 °F 32.2 °F 23.59 in South 2.7 mph -999.0 mph 66 % 0 in
20:34 43.2 °F 30.2 °F 23.58 in SSW 2.7 mph -999.0 mph 60 % 0 in
20:49 43.2 °F 28.1 °F 23.57 in SSE 2.7 mph -999.0 mph 55 % 0 in
21:05 45.1 °F 26.1 °F 23.58 in ESE 4.7 mph -999.0 mph 47 % 0 in
21:20 45.0 °F 27.9 °F 23.59 in NW 4.7 mph -999.0 mph 51 % 0 in
21:35 44.4 °F 30.5 °F 23.58 in SW 4.7 mph -999.0 mph 58 % 0 in
21:51 44.4 °F 28.8 °F 23.58 in SSE 4.2 mph -999.0 mph 54 % 0 in
22:07 45.0 °F 27.5 °F 23.57 in South 4.7 mph -999.0 mph 50 % 0 in
22:22 47.3 °F 27.0 °F 23.57 in SSW 5.8 mph -999.0 mph 45 % 0 in
22:37 46.0 °F 27.4 °F 23.59 in SSE 7.8 mph -999.0 mph 48 % 0 in
22:52 45.9 °F 28.8 °F 23.57 in NNE 12.5 mph -999.0 mph 51 % 0 in
Big Bear CA Weather
Compliments of Weather Underground - 1.5 mb